Time;durP1;ratioP1;P1;durP2;ratioP2;P2;SDS_P1;SDS_P2;PMS_P1;PMS_P2;Temp;Humidity;BMP_temperature;BMP_pressure;BME280_temperature;BME280_humidity;BME280_pressure;Samples;Min_cycle;Max_cycle;Signal;HPM_P1;HPM_P2
2021/12/15 00:00:32;;;;;;;10.50;7.28;;;;;;;;;;5077916;28;20020;-61
2021/12/15 00:02:58;;;;;;;11.40;6.55;;;;;;;;;;5073149;28;20063;-61
2021/12/15 00:05:24;;;;;;;11.20;6.68;;;;;;;;;;5086686;28;20115;-62
2021/12/15 00:07:51;;;;;;;10.18;7.50;;;;;;;;;;5071770;28;20051;-60
2021/12/15 00:10:17;;;;;;;12.77;6.88;;;;;;;;;;5072117;28;20066;-61
2021/12/15 00:12:42;;;;;;;10.23;7.13;;;;;;;;;;5071341;28;20400;-62
2021/12/15 00:15:08;;;;;;;9.13;6.45;;;;;;;;;;5074746;28;20068;-62
2021/12/15 00:17:33;;;;;;;12.55;7.53;;;;;;;;;;5108193;28;20066;-61
2021/12/15 00:19:58;;;;;;;11.02;7.13;;;;;;;;;;5092864;28;20032;-62
2021/12/15 00:22:24;;;;;;;15.40;8.05;;;;;;;;;;5093372;28;20077;-61
2021/12/15 00:24:49;;;;;;;10.98;6.30;;;;;;;;;;5085955;28;20024;-61
2021/12/15 00:27:14;;;;;;;11.57;7.78;;;;;;;;;;5081960;28;20039;-61
2021/12/15 00:29:39;;;;;;;10.35;7.45;;;;;;;;;;5081521;28;20358;-61
2021/12/15 00:32:06;;;;;;;8.57;6.32;;;;;;;;;;5083126;28;20481;-61
2021/12/15 00:34:32;;;;;;;9.48;6.88;;;;;;;;;;5078899;28;20100;-62
2021/12/15 00:36:58;;;;;;;11.35;7.35;;;;;;;;;;5081583;28;20050;-62
2021/12/15 00:39:23;;;;;;;9.27;7.20;;;;;;;;;;5080569;28;20028;-62
2021/12/15 00:41:49;;;;;;;12.65;7.55;;;;;;;;;;5082448;28;20032;-61
2021/12/15 00:44:14;;;;;;;11.05;6.60;;;;;;;;;;5081084;28;20127;-61
2021/12/15 00:46:43;;;;;;;10.25;7.43;;;;;;;;;;5081528;28;20099;-61
2021/12/15 00:49:08;;;;;;;11.65;7.07;;;;;;;;;;5072643;28;20542;-61
2021/12/15 00:51:34;;;;;;;13.77;6.65;;;;;;;;;;5072304;28;20045;-61
2021/12/15 00:54:00;;;;;;;10.15;6.65;;;;;;;;;;5072287;28;20036;-62
2021/12/15 00:56:25;;;;;;;9.52;7.15;;;;;;;;;;5072070;28;20043;-60
2021/12/15 00:58:50;;;;;;;10.13;7.25;;;;;;;;;;5072215;28;20468;-61
2021/12/15 01:01:15;;;;;;;10.32;7.00;;;;;;;;;;5072661;28;20107;-61
2021/12/15 01:03:41;;;;;;;8.10;6.55;;;;;;;;;;5071934;28;20412;-62
2021/12/15 01:06:09;;;;;;;9.90;6.93;;;;;;;;;;5074595;28;20029;-61
2021/12/15 01:08:42;;;;;;;13.98;7.28;;;;;;;;;;5075750;28;20043;-61
2021/12/15 01:11:15;;;;;;;11.05;6.82;;;;;;;;;;5076272;28;20104;-60
2021/12/15 01:22:01;;;;;;;10.85;6.38;;;;;;;;;;5075022;28;20462;-61
2021/12/15 01:24:26;;;;;;;9.45;6.63;;;;;;;;;;5075492;28;20040;-61
2021/12/15 01:26:52;;;;;;;8.63;6.63;;;;;;;;;;5075464;28;20068;-60
2021/12/15 01:29:17;;;;;;;10.30;6.90;;;;;;;;;;5076067;28;20555;-60
2021/12/15 01:31:43;;;;;;;8.50;5.88;;;;;;;;;;5075572;28;20480;-60
2021/12/15 01:34:08;;;;;;;8.50;6.60;;;;;;;;;;5075943;28;20087;-61
2021/12/15 01:36:33;;;;;;;13.07;7.93;;;;;;;;;;5065365;28;20036;-61
2021/12/15 01:38:58;;;;;;;9.40;5.78;;;;;;;;;;5055520;28;20782;-61
2021/12/15 01:41:24;;;;;;;8.63;6.28;;;;;;;;;;5055381;28;20507;-61
2021/12/15 01:46:53;;;;;;;8.23;6.45;;;;;;;;;;5055371;28;20397;-60
2021/12/15 01:49:42;;;;;;;8.80;6.80;;;;;;;;;;5033307;28;20053;-61
2021/12/15 01:52:07;;;;;;;10.93;6.85;;;;;;;;;;5033687;28;20529;-62
2021/12/15 01:54:33;;;;;;;12.03;7.03;;;;;;;;;;5033138;28;20045;-62
2021/12/15 01:56:59;;;;;;;8.55;6.32;;;;;;;;;;5032578;28;20443;-61
2021/12/15 01:59:25;;;;;;;7.20;6.13;;;;;;;;;;5033082;28;20052;-60
2021/12/15 02:01:50;;;;;;;9.18;6.57;;;;;;;;;;5032836;28;20102;-60
2021/12/15 02:04:18;;;;;;;9.20;6.40;;;;;;;;;;5036994;28;20565;-61
2021/12/15 02:06:44;;;;;;;9.25;6.70;;;;;;;;;;5022097;28;20026;-61
2021/12/15 02:09:11;;;;;;;8.85;6.75;;;;;;;;;;5012899;28;20049;-61
2021/12/15 02:11:36;;;;;;;11.38;6.80;;;;;;;;;;5013183;28;20033;-61
2021/12/15 02:14:02;;;;;;;9.27;6.63;;;;;;;;;;5012916;28;20467;-62
2021/12/15 02:16:29;;;;;;;10.02;6.93;;;;;;;;;;5022639;28;20124;-61
2021/12/15 02:18:54;;;;;;;10.30;7.25;;;;;;;;;;5069073;28;20463;-61
2021/12/15 02:21:20;;;;;;;14.73;8.13;;;;;;;;;;5074383;27;20044;-61
2021/12/15 02:23:49;;;;;;;12.00;8.00;;;;;;;;;;5074751;27;20140;-61
2021/12/15 02:26:17;;;;;;;12.68;8.15;;;;;;;;;;5074430;27;20067;-61
2021/12/15 02:28:46;;;;;;;12.38;9.05;;;;;;;;;;5074364;27;20123;-57
2021/12/15 02:31:21;;;;;;;12.38;8.55;;;;;;;;;;5073650;28;20036;-61
2021/12/15 02:39:25;;;;;;;12.02;7.88;;;;;;;;;;5052094;28;20467;-61
2021/12/15 02:41:50;;;;;;;12.30;8.23;;;;;;;;;;5052005;28;20132;-60
2021/12/15 02:44:17;;;;;;;14.25;8.68;;;;;;;;;;5051915;28;20547;-60
2021/12/15 02:46:45;;;;;;;14.13;8.57;;;;;;;;;;5051730;28;20049;-58
2021/12/15 02:49:12;;;;;;;19.63;11.43;;;;;;;;;;5052229;28;20489;-61
2021/12/15 02:51:39;;;;;;;17.08;10.05;;;;;;;;;;5052206;28;20037;-61
2021/12/15 02:54:07;;;;;;;15.40;10.32;;;;;;;;;;5051617;28;20063;-61
2021/12/15 02:56:32;;;;;;;15.15;10.82;;;;;;;;;;5051303;28;20599;-60
2021/12/15 02:59:02;;;;;;;19.67;11.30;;;;;;;;;;5051557;28;20036;-60
2021/12/15 03:01:56;;;;;;;15.45;10.15;;;;;;;;;;5068822;28;20111;-61
2021/12/15 03:04:40;;;;;;;14.00;9.75;;;;;;;;;;5071385;28;20045;-61
2021/12/15 03:07:16;;;;;;;16.42;10.00;;;;;;;;;;5071075;28;20060;-61
2021/12/15 03:17:36;;;;;;;16.52;10.50;;;;;;;;;;5033524;28;20037;-61
2021/12/15 03:20:01;;;;;;;17.65;10.73;;;;;;;;;;5033956;28;20390;-60
2021/12/15 03:22:27;;;;;;;20.10;11.80;;;;;;;;;;5034314;28;20445;-61
2021/12/15 03:24:52;;;;;;;20.08;12.27;;;;;;;;;;5033553;28;20037;-61
2021/12/15 03:27:22;;;;;;;18.90;12.65;;;;;;;;;;5032866;28;20033;-61
2021/12/15 03:35:21;;;;;;;21.23;11.60;;;;;;;;;;5053382;28;20064;-61
2021/12/15 03:37:48;;;;;;;16.38;10.90;;;;;;;;;;5052885;28;20017;-60
2021/12/15 03:40:17;;;;;;;19.98;12.70;;;;;;;;;;5053608;28;20028;-61
2021/12/15 03:42:54;;;;;;;18.45;12.23;;;;;;;;;;5053292;28;20044;-61
2021/12/15 03:45:26;;;;;;;17.35;12.05;;;;;;;;;;5053135;28;20021;-61
2021/12/15 03:47:53;;;;;;;19.90;13.25;;;;;;;;;;5052715;28;20044;-61
2021/12/15 03:50:19;;;;;;;18.55;12.52;;;;;;;;;;5053297;28;20025;-61
2021/12/15 03:52:48;;;;;;;19.33;12.75;;;;;;;;;;5052997;28;20519;-60
2021/12/15 03:55:14;;;;;;;19.95;12.82;;;;;;;;;;5053109;28;20037;-61
2021/12/15 03:57:40;;;;;;;20.30;12.32;;;;;;;;;;5052315;28;20048;-61
2021/12/15 04:00:07;;;;;;;18.80;12.95;;;;;;;;;;5053130;28;20468;-61
2021/12/15 04:02:33;;;;;;;21.05;14.73;;;;;;;;;;5052645;28;20120;-61
2021/12/15 04:04:58;;;;;;;19.92;13.52;;;;;;;;;;5042604;28;20072;-61
2021/12/15 04:07:24;;;;;;;19.60;13.45;;;;;;;;;;5052099;28;20025;-61
2021/12/15 04:09:50;;;;;;;21.35;13.80;;;;;;;;;;5052479;28;20087;-61
2021/12/15 04:12:15;;;;;;;20.48;14.23;;;;;;;;;;5052836;28;20036;-61
2021/12/15 04:14:45;;;;;;;18.15;12.70;;;;;;;;;;5052661;28;20367;-61
2021/12/15 04:17:26;;;;;;;20.25;13.48;;;;;;;;;;5056263;28;20108;-61
2021/12/15 04:19:52;;;;;;;23.98;14.05;;;;;;;;;;5072655;28;20062;-61
2021/12/15 04:22:17;;;;;;;21.45;13.93;;;;;;;;;;5073107;28;20095;-61
2021/12/15 04:24:43;;;;;;;23.13;13.95;;;;;;;;;;5072480;28;20045;-61
2021/12/15 04:27:08;;;;;;;22.13;14.52;;;;;;;;;;5072245;28;20204;-62
2021/12/15 04:29:33;;;;;;;23.30;14.40;;;;;;;;;;5072477;28;20481;-61
2021/12/15 04:32:02;;;;;;;23.00;14.75;;;;;;;;;;5072497;28;20024;-61
2021/12/15 04:34:27;;;;;;;19.35;13.38;;;;;;;;;;5072916;28;20499;-61
2021/12/15 04:36:53;;;;;;;20.88;14.43;;;;;;;;;;5072367;28;20032;-61
2021/12/15 04:39:20;;;;;;;19.33;12.80;;;;;;;;;;5072214;28;20032;-62
2021/12/15 04:41:49;;;;;;;18.77;13.43;;;;;;;;;;5076584;28;20113;-62
2021/12/15 04:44:15;;;;;;;22.55;13.82;;;;;;;;;;5076807;28;20029;-62
2021/12/15 04:46:43;;;;;;;19.70;14.02;;;;;;;;;;5076622;28;20029;-62
2021/12/15 04:49:09;;;;;;;18.45;11.93;;;;;;;;;;5076735;28;20378;-62
2021/12/15 04:51:34;;;;;;;21.65;14.13;;;;;;;;;;5076739;28;20037;-62
2021/12/15 04:54:00;;;;;;;21.27;14.20;;;;;;;;;;5076090;28;20046;-62
2021/12/15 04:56:25;;;;;;;22.15;14.40;;;;;;;;;;5076108;28;20037;-61
2021/12/15 04:58:51;;;;;;;20.42;14.65;;;;;;;;;;5076299;28;20036;-62
2021/12/15 05:01:17;;;;;;;22.85;14.50;;;;;;;;;;5071022;28;20939;-66
2021/12/15 05:03:42;;;;;;;22.90;13.73;;;;;;;;;;5055801;28;20060;-62
2021/12/15 05:06:08;;;;;;;22.10;14.13;;;;;;;;;;5066614;28;20033;-62
2021/12/15 05:08:34;;;;;;;24.90;15.18;;;;;;;;;;5055419;28;20091;-62
2021/12/15 05:11:00;;;;;;;24.05;16.25;;;;;;;;;;5070932;28;20021;-61
2021/12/15 05:13:26;;;;;;;22.25;14.40;;;;;;;;;;5056363;28;20043;-62
2021/12/15 05:15:51;;;;;;;20.83;14.90;;;;;;;;;;5063047;28;20032;-62
2021/12/15 05:18:16;;;;;;;21.65;14.20;;;;;;;;;;5075555;28;20042;-61
2021/12/15 05:20:47;;;;;;;21.13;14.05;;;;;;;;;;5078169;28;20049;-62
2021/12/15 05:23:14;;;;;;;22.90;14.27;;;;;;;;;;5095558;28;20111;-61
2021/12/15 05:25:39;;;;;;;23.40;15.65;;;;;;;;;;5096231;28;20089;-62
2021/12/15 05:28:05;;;;;;;21.92;14.43;;;;;;;;;;5095362;28;20048;-62
2021/12/15 05:30:30;;;;;;;21.48;14.13;;;;;;;;;;5082755;28;20449;-62
2021/12/15 05:32:55;;;;;;;22.08;15.48;;;;;;;;;;5075544;28;20025;-61
2021/12/15 05:35:23;;;;;;;19.70;14.65;;;;;;;;;;5062381;28;20048;-61
2021/12/15 05:37:50;;;;;;;22.92;14.80;;;;;;;;;;5055127;28;20025;-60
2021/12/15 05:40:15;;;;;;;21.40;15.43;;;;;;;;;;5055257;28;20081;-61
2021/12/15 05:42:40;;;;;;;23.70;15.52;;;;;;;;;;5055555;28;20037;-62
2021/12/15 05:45:06;;;;;;;23.40;15.07;;;;;;;;;;5055562;28;20048;-61
2021/12/15 05:47:31;;;;;;;22.38;15.30;;;;;;;;;;5054946;28;20017;-61
2021/12/15 05:49:57;;;;;;;22.90;14.65;;;;;;;;;;5061845;28;20108;-61
2021/12/15 05:52:26;;;;;;;19.52;14.02;;;;;;;;;;5075573;28;20017;-62
2021/12/15 05:54:51;;;;;;;21.15;13.77;;;;;;;;;;5075022;28;20123;-62
2021/12/15 05:57:16;;;;;;;23.95;15.40;;;;;;;;;;5074838;28;20858;-62
2021/12/15 05:59:42;;;;;;;23.42;15.50;;;;;;;;;;5074859;28;20086;-62
2021/12/15 06:02:07;;;;;;;22.50;15.02;;;;;;;;;;5075179;28;20083;-61
2021/12/15 06:04:33;;;;;;;21.60;14.48;;;;;;;;;;5083571;28;20378;-61
2021/12/15 06:06:58;;;;;;;20.50;13.20;;;;;;;;;;5054921;28;20456;-62
2021/12/15 06:09:23;;;;;;;17.83;13.02;;;;;;;;;;5054536;28;20041;-62
2021/12/15 06:11:52;;;;;;;19.52;12.73;;;;;;;;;;5055268;28;20048;-62
2021/12/15 06:14:23;;;;;;;20.85;13.52;;;;;;;;;;5073231;28;20119;-58
2021/12/15 06:16:49;;;;;;;22.88;13.10;;;;;;;;;;5074061;28;20465;-60
2021/12/15 06:19:15;;;;;;;17.95;12.68;;;;;;;;;;5075731;28;20036;-59
2021/12/15 06:21:40;;;;;;;19.23;12.68;;;;;;;;;;5076479;28;20043;-59
2021/12/15 06:24:05;;;;;;;16.95;11.70;;;;;;;;;;5075045;28;20039;-60
2021/12/15 06:26:30;;;;;;;17.27;11.13;;;;;;;;;;5072962;28;20024;-60
2021/12/15 06:28:56;;;;;;;18.77;11.25;;;;;;;;;;5075448;28;20369;-59
2021/12/15 06:31:21;;;;;;;15.20;10.65;;;;;;;;;;5075040;28;20449;-60
2021/12/15 06:33:47;;;;;;;14.68;10.13;;;;;;;;;;5075328;28;20116;-60
2021/12/15 06:36:19;;;;;;;14.55;9.75;;;;;;;;;;5074372;28;20443;-59
2021/12/15 06:38:46;;;;;;;12.52;8.95;;;;;;;;;;5073709;28;20420;-59
2021/12/15 06:41:12;;;;;;;13.52;8.85;;;;;;;;;;5073898;28;20044;-58
2021/12/15 06:43:39;;;;;;;16.42;9.90;;;;;;;;;;5075157;28;20365;-60
2021/12/15 06:59:31;;;;;;;12.93;8.52;;;;;;;;;;5075661;28;20442;-59
2021/12/15 07:01:56;;;;;;;12.60;8.43;;;;;;;;;;5078865;28;20032;-59
2021/12/15 07:04:22;;;;;;;15.63;9.18;;;;;;;;;;5079899;28;20376;-59
2021/12/15 07:06:48;;;;;;;11.07;7.75;;;;;;;;;;5075983;28;20393;-60
2021/12/15 07:09:13;;;;;;;12.57;8.00;;;;;;;;;;5078444;28;20511;-60
2021/12/15 07:11:39;;;;;;;14.02;8.55;;;;;;;;;;5078776;28;20036;-60
2021/12/15 07:14:04;;;;;;;12.95;8.82;;;;;;;;;;5083446;28;20028;-60
2021/12/15 07:16:32;;;;;;;15.43;9.38;;;;;;;;;;5082894;28;20085;-59
2021/12/15 07:19:07;;;;;;;13.68;8.27;;;;;;;;;;5078681;28;20029;-59
2021/12/15 07:21:36;;;;;;;23.83;9.40;;;;;;;;;;5082841;28;20081;-60
2021/12/15 07:24:02;;;;;;;21.88;10.50;;;;;;;;;;5082635;28;20024;-60
2021/12/15 07:26:28;;;;;;;15.48;9.52;;;;;;;;;;5082311;28;20036;-59
2021/12/15 07:28:53;;;;;;;20.98;9.93;;;;;;;;;;5076017;28;20028;-59
2021/12/15 07:31:19;;;;;;;15.57;10.57;;;;;;;;;;5073436;28;20064;-60
2021/12/15 07:33:44;;;;;;;15.35;9.95;;;;;;;;;;5072047;28;20505;-60
2021/12/15 07:36:09;;;;;;;14.32;9.20;;;;;;;;;;5073241;28;20032;-60
2021/12/15 07:38:41;;;;;;;19.55;9.70;;;;;;;;;;5069956;28;20086;-59
2021/12/15 07:41:07;;;;;;;17.77;9.05;;;;;;;;;;5078919;28;20045;-61
2021/12/15 07:43:32;;;;;;;22.27;10.32;;;;;;;;;;5078196;28;20039;-60
2021/12/15 07:45:59;;;;;;;15.75;9.50;;;;;;;;;;5072969;28;20037;-59
2021/12/15 07:48:26;;;;;;;16.17;9.52;;;;;;;;;;5075321;28;20506;-61
2021/12/15 07:50:54;;;;;;;17.85;11.00;;;;;;;;;;5081486;28;20020;-59
2021/12/15 07:53:20;;;;;;;19.17;9.27;;;;;;;;;;5080194;28;20456;-59
2021/12/15 07:55:46;;;;;;;14.82;10.77;;;;;;;;;;5077243;28;20099;-59
2021/12/15 07:58:12;;;;;;;16.30;9.23;;;;;;;;;;5079451;28;20047;-60
2021/12/15 08:00:39;;;;;;;16.42;10.57;;;;;;;;;;5091491;28;20071;-59
2021/12/15 08:03:05;;;;;;;19.73;11.45;;;;;;;;;;5090905;28;20035;-59
2021/12/15 08:05:30;;;;;;;17.95;9.40;;;;;;;;;;5077484;28;20040;-59
2021/12/15 08:07:56;;;;;;;14.75;9.95;;;;;;;;;;5085831;28;20036;-59
2021/12/15 08:10:21;;;;;;;16.55;10.65;;;;;;;;;;5078376;28;20024;-59
2021/12/15 08:12:47;;;;;;;21.48;10.23;;;;;;;;;;5072747;28;20454;-60
2021/12/15 08:15:13;;;;;;;15.35;10.00;;;;;;;;;;5075705;28;20048;-60
2021/12/15 08:17:40;;;;;;;19.33;11.40;;;;;;;;;;5076063;28;20463;-58
2021/12/15 08:20:06;;;;;;;18.73;10.30;;;;;;;;;;5076755;28;20043;-59
2021/12/15 08:22:32;;;;;;;17.02;11.20;;;;;;;;;;5072424;28;20056;-59
2021/12/15 08:24:57;;;;;;;21.35;11.68;;;;;;;;;;5082848;28;20028;-58
2021/12/15 08:27:22;;;;;;;19.45;10.80;;;;;;;;;;5089378;28;20067;-59
2021/12/15 08:29:47;;;;;;;19.38;12.23;;;;;;;;;;5085880;28;20032;-59
2021/12/15 08:32:13;;;;;;;18.67;12.05;;;;;;;;;;5074407;28;20148;-59
2021/12/15 08:34:38;;;;;;;27.17;11.70;;;;;;;;;;5073554;28;20024;-58
2021/12/15 08:37:05;;;;;;;18.02;10.65;;;;;;;;;;5076703;28;20070;-58
2021/12/15 08:39:30;;;;;;;19.75;11.48;;;;;;;;;;5079513;28;20056;-59
2021/12/15 08:41:56;;;;;;;25.90;12.60;;;;;;;;;;5075517;28;20056;-60
2021/12/15 08:44:21;;;;;;;21.50;12.15;;;;;;;;;;5078382;28;20037;-58
2021/12/15 08:46:47;;;;;;;25.98;13.23;;;;;;;;;;5069528;28;20020;-58
2021/12/15 08:49:16;;;;;;;19.42;10.70;;;;;;;;;;5073461;28;20070;-60
2021/12/15 08:51:41;;;;;;;24.13;12.52;;;;;;;;;;5067660;28;20116;-59
2021/12/15 08:54:09;;;;;;;18.35;10.68;;;;;;;;;;5073346;28;20162;-58
2021/12/15 08:56:34;;;;;;;16.40;10.68;;;;;;;;;;5076522;28;20024;-59
2021/12/15 08:59:00;;;;;;;19.40;10.18;;;;;;;;;;5082630;28;20039;-59
2021/12/15 09:01:26;;;;;;;21.13;11.23;;;;;;;;;;5077966;28;20033;-58
2021/12/15 09:03:51;;;;;;;18.58;10.48;;;;;;;;;;5068817;28;20043;-58
2021/12/15 09:06:16;;;;;;;25.27;11.85;;;;;;;;;;5085558;28;20037;-58
2021/12/15 09:08:43;;;;;;;19.85;10.82;;;;;;;;;;5077366;28;20024;-59
2021/12/15 09:11:09;;;;;;;18.27;11.15;;;;;;;;;;5085659;28;20024;-59
2021/12/15 09:13:35;;;;;;;19.58;12.10;;;;;;;;;;5068235;28;20037;-59
2021/12/15 09:16:05;;;;;;;23.45;11.70;;;;;;;;;;5076464;28;20105;-58
2021/12/15 09:18:30;;;;;;;17.00;10.68;;;;;;;;;;5079996;28;20025;-58
2021/12/15 09:20:55;;;;;;;20.48;12.35;;;;;;;;;;5069637;28;20063;-58
2021/12/15 09:23:21;;;;;;;19.05;12.57;;;;;;;;;;5113593;28;20477;-59
2021/12/15 09:25:47;;;;;;;22.63;12.68;;;;;;;;;;5078418;28;20031;-58
2021/12/15 09:28:12;;;;;;;23.15;11.35;;;;;;;;;;5089056;28;20107;-58
2021/12/15 09:30:44;;;;;;;25.27;13.13;;;;;;;;;;5083706;28;20108;-58
2021/12/15 09:33:20;;;;;;;26.60;12.85;;;;;;;;;;5089976;28;20048;-58
2021/12/15 09:35:47;;;;;;;23.38;11.63;;;;;;;;;;5073646;28;20040;-59
2021/12/15 09:38:12;;;;;;;18.58;12.05;;;;;;;;;;5073297;28;20138;-59
2021/12/15 09:40:40;;;;;;;21.33;11.35;;;;;;;;;;5080387;28;20064;-59
2021/12/15 09:43:05;;;;;;;21.77;11.48;;;;;;;;;;5086198;28;20135;-59
2021/12/15 09:56:49;;;;;;;26.23;13.65;;;;;;;;;;5093597;28;20040;-59
2021/12/15 10:04:23;;;;;;;22.95;14.00;;;;;;;;;;5082454;28;20039;-59
2021/12/15 10:18:06;;;;;;;24.83;13.05;;;;;;;;;;5073160;28;20078;-58
2021/12/15 10:20:32;;;;;;;24.83;13.50;;;;;;;;;;5072878;28;20148;-59
2021/12/15 10:23:03;;;;;;;26.35;13.90;;;;;;;;;;5072586;28;20420;-58
2021/12/15 10:25:31;;;;;;;19.02;11.48;;;;;;;;;;5073895;28;20021;-59
2021/12/15 10:28:03;;;;;;;24.20;12.40;;;;;;;;;;5072449;28;20434;-59
2021/12/15 10:30:38;;;;;;;21.95;11.82;;;;;;;;;;5075316;28;20047;-59
2021/12/15 10:33:06;;;;;;;24.33;11.63;;;;;;;;;;5072571;28;20032;-59
2021/12/15 10:35:41;;;;;;;20.52;12.38;;;;;;;;;;5084258;28;20035;-58
2021/12/15 10:38:10;;;;;;;23.60;12.60;;;;;;;;;;5081674;28;20579;-67
2021/12/15 10:40:57;;;;;;;21.80;12.43;;;;;;;;;;5072023;28;20133;-58
2021/12/15 10:43:24;;;;;;;17.55;10.80;;;;;;;;;;5064467;28;20033;-58
2021/12/15 10:45:51;;;;;;;19.83;10.48;;;;;;;;;;5070008;28;20053;-57
2021/12/15 10:48:24;;;;;;;18.73;10.25;;;;;;;;;;5065228;28;20035;-58
2021/12/15 10:50:50;;;;;;;19.23;9.32;;;;;;;;;;5072750;28;20059;-58
2021/12/15 10:53:28;;;;;;;21.17;9.75;;;;;;;;;;5071934;28;20060;-58
2021/12/15 10:55:53;;;;;;;15.90;9.60;;;;;;;;;;5072030;28;20103;-58
2021/12/15 10:58:35;;;;;;;18.50;9.25;;;;;;;;;;5072335;28;20116;-58
2021/12/15 11:01:02;;;;;;;15.63;9.20;;;;;;;;;;5059375;28;20024;-58
2021/12/15 11:03:37;;;;;;;18.77;9.88;;;;;;;;;;5072200;28;20051;-58
2021/12/15 11:06:19;;;;;;;16.98;8.40;;;;;;;;;;5052971;28;20032;-58
2021/12/15 11:08:45;;;;;;;14.50;8.73;;;;;;;;;;5058199;28;20021;-58
2021/12/15 11:11:22;;;;;;;16.63;8.27;;;;;;;;;;5058464;28;20412;-58
2021/12/15 11:13:48;;;;;;;15.90;8.18;;;;;;;;;;5055054;28;20020;-58
2021/12/15 11:16:13;;;;;;;15.07;9.60;;;;;;;;;;5056130;28;20021;-58
2021/12/15 11:18:38;;;;;;;15.23;8.65;;;;;;;;;;5051843;28;20374;-59
2021/12/15 11:21:06;;;;;;;12.93;8.05;;;;;;;;;;5051572;28;20045;-58
2021/12/15 11:23:32;;;;;;;14.50;8.35;;;;;;;;;;5052121;28;20031;-57
2021/12/15 11:26:05;;;;;;;13.95;8.65;;;;;;;;;;5051557;28;20040;-57
2021/12/15 11:28:36;;;;;;;14.85;7.57;;;;;;;;;;5051722;28;20033;-58
2021/12/15 11:31:03;;;;;;;15.55;8.38;;;;;;;;;;5051286;28;20037;-57
2021/12/15 11:33:32;;;;;;;15.88;8.38;;;;;;;;;;5051851;28;20527;-57
2021/12/15 11:36:03;;;;;;;15.95;8.15;;;;;;;;;;5053377;28;20551;-57
2021/12/15 11:38:30;;;;;;;19.50;8.32;;;;;;;;;;5051703;28;20033;-58
2021/12/15 11:40:55;;;;;;;16.42;8.75;;;;;;;;;;5051339;28;20040;-58
2021/12/15 11:43:28;;;;;;;18.13;9.50;;;;;;;;;;5051646;28;20513;-57
2021/12/15 11:45:53;;;;;;;15.88;7.65;;;;;;;;;;5050995;28;20437;-58
2021/12/15 11:48:22;;;;;;;15.23;8.43;;;;;;;;;;5053638;28;20477;-57
2021/12/15 11:50:49;;;;;;;16.33;8.57;;;;;;;;;;5069479;28;20037;-58
2021/12/15 11:53:21;;;;;;;12.23;7.75;;;;;;;;;;5053034;28;20035;-58
2021/12/15 11:55:48;;;;;;;16.45;8.05;;;;;;;;;;5055344;28;20083;-58
2021/12/15 11:58:13;;;;;;;11.38;8.13;;;;;;;;;;5047178;28;20037;-58
2021/12/15 12:00:38;;;;;;;12.48;7.22;;;;;;;;;;5049919;28;20040;-58
2021/12/15 12:03:04;;;;;;;12.30;7.28;;;;;;;;;;5056334;28;20029;-58
2021/12/15 12:05:36;;;;;;;14.85;7.93;;;;;;;;;;5057123;28;20099;-58
2021/12/15 12:08:07;;;;;;;19.10;8.50;;;;;;;;;;5054698;28;20025;-58
2021/12/15 12:10:49;;;;;;;15.10;6.93;;;;;;;;;;5054265;28;20020;-58
2021/12/15 12:13:25;;;;;;;13.27;7.07;;;;;;;;;;5075606;28;20115;-58
2021/12/15 12:15:52;;;;;;;12.98;7.00;;;;;;;;;;5053345;28;20331;-57
2021/12/15 12:18:19;;;;;;;11.48;6.07;;;;;;;;;;5050403;28;20116;-58
2021/12/15 12:20:49;;;;;;;10.95;5.97;;;;;;;;;;5050836;28;20037;-57
2021/12/15 12:23:17;;;;;;;9.93;6.10;;;;;;;;;;5050428;28;20123;-57
2021/12/15 12:25:46;;;;;;;15.18;6.85;;;;;;;;;;5051387;28;20051;-57
2021/12/15 12:28:12;;;;;;;10.40;6.60;;;;;;;;;;5081790;28;20392;-57
2021/12/15 12:30:39;;;;;;;9.07;6.25;;;;;;;;;;5078416;28;20052;-57
2021/12/15 12:33:08;;;;;;;7.90;5.65;;;;;;;;;;5074831;28;20529;-57
2021/12/15 12:35:35;;;;;;;12.40;5.60;;;;;;;;;;5080766;27;20455;-58
2021/12/15 12:38:29;;;;;;;12.05;5.28;;;;;;;;;;5068629;28;20056;-57
2021/12/15 12:40:57;;;;;;;8.85;4.90;;;;;;;;;;5027440;28;20041;-57
2021/12/15 12:43:30;;;;;;;9.85;5.32;;;;;;;;;;5031459;28;20129;-57
2021/12/15 12:46:06;;;;;;;12.02;4.93;;;;;;;;;;5010010;28;20034;-57
2021/12/15 12:48:47;;;;;;;9.95;4.93;;;;;;;;;;5008753;28;20461;-57
2021/12/15 12:59:43;;;;;;;9.25;4.20;;;;;;;;;;5009115;28;20037;-57
2021/12/15 13:02:45;;;;;;;9.07;4.32;;;;;;;;;;5011724;28;20451;-57
2021/12/15 13:05:28;;;;;;;7.75;3.78;;;;;;;;;;5012218;28;20530;-57
2021/12/15 13:07:55;;;;;;;14.25;4.53;;;;;;;;;;5011742;28;20045;-58
2021/12/15 13:10:21;;;;;;;8.20;4.85;;;;;;;;;;5012290;28;20038;-58
2021/12/15 13:12:49;;;;;;;6.90;4.03;;;;;;;;;;5041650;28;20525;-57
2021/12/15 13:15:19;;;;;;;9.68;4.38;;;;;;;;;;5047504;28;20087;-58
2021/12/15 13:17:58;;;;;;;8.57;3.70;;;;;;;;;;5073663;28;20373;-57
2021/12/15 13:20:25;;;;;;;6.63;3.45;;;;;;;;;;5076815;28;20442;-58
2021/12/15 13:23:31;;;;;;;9.60;4.10;;;;;;;;;;5057161;28;20033;-58
2021/12/15 13:28:47;;;;;;;7.68;3.47;;;;;;;;;;5053998;28;20048;-57
2021/12/15 13:31:15;;;;;;;7.97;3.30;;;;;;;;;;5054049;28;20044;-57
2021/12/15 13:33:45;;;;;;;9.88;2.80;;;;;;;;;;5058586;28;20055;-56
2021/12/15 13:36:13;;;;;;;5.55;2.13;;;;;;;;;;5068471;28;20040;-57
2021/12/15 13:38:41;;;;;;;6.40;2.78;;;;;;;;;;5074336;28;20035;-56
2021/12/15 13:41:59;;;;;;;6.90;2.40;;;;;;;;;;5073102;28;20511;-57
2021/12/15 13:44:44;;;;;;;5.70;2.28;;;;;;;;;;5012941;28;20037;-57
2021/12/15 13:47:09;;;;;;;5.20;1.67;;;;;;;;;;5014543;28;20026;-57
2021/12/15 13:49:42;;;;;;;4.72;2.03;;;;;;;;;;5014098;28;20041;-57
2021/12/15 13:52:07;;;;;;;4.22;2.10;;;;;;;;;;5002293;28;20036;-58
2021/12/15 13:54:33;;;;;;;5.63;2.20;;;;;;;;;;5000327;28;20027;-58
2021/12/15 13:57:01;;;;;;;5.47;1.52;;;;;;;;;;4984783;28;20106;-57
2021/12/15 13:59:35;;;;;;;5.88;1.77;;;;;;;;;;4988348;28;20077;-58
2021/12/15 14:02:10;;;;;;;3.92;1.80;;;;;;;;;;4985632;28;20477;-58
2021/12/15 14:04:41;;;;;;;4.32;1.48;;;;;;;;;;4985069;28;20639;-58
2021/12/15 14:07:25;;;;;;;3.22;1.58;;;;;;;;;;4985847;28;20057;-58
2021/12/15 14:09:50;;;;;;;3.03;1.38;;;;;;;;;;4974648;28;20043;-59
2021/12/15 14:12:35;;;;;;;4.50;1.20;;;;;;;;;;4982873;28;20030;-59
2021/12/15 14:15:01;;;;;;;4.28;1.20;;;;;;;;;;5021892;28;20067;-58
2021/12/15 14:17:27;;;;;;;2.70;2.10;;;;;;;;;;5051861;28;20049;-58
2021/12/15 14:19:52;;;;;;;6.53;1.45;;;;;;;;;;5051452;28;20465;-58
2021/12/15 14:22:19;;;;;;;2.38;1.08;;;;;;;;;;5052109;28;20068;-58
2021/12/15 14:24:44;;;;;;;2.85;1.08;;;;;;;;;;5051656;28;20029;-59
2021/12/15 14:27:10;;;;;;;4.55;1.10;;;;;;;;;;5051185;28;20041;-57
2021/12/15 14:29:35;;;;;;;5.63;1.20;;;;;;;;;;5052218;28;20025;-58
2021/12/15 14:32:02;;;;;;;3.97;0.95;;;;;;;;;;5056335;28;21378;-58
2021/12/15 14:34:31;;;;;;;3.28;1.10;;;;;;;;;;5056164;28;20927;-59
2021/12/15 14:37:03;;;;;;;4.63;1.00;;;;;;;;;;5051341;28;20040;-59
2021/12/15 14:39:31;;;;;;;4.15;1.13;;;;;;;;;;5051584;28;20132;-58
2021/12/15 14:42:02;;;;;;;5.45;1.20;;;;;;;;;;5051022;28;20029;-58
2021/12/15 14:44:31;;;;;;;3.30;1.02;;;;;;;;;;5048823;28;20047;-59
2021/12/15 14:46:58;;;;;;;3.03;1.17;;;;;;;;;;5051639;28;20028;-58
2021/12/15 14:49:26;;;;;;;3.63;1.02;;;;;;;;;;5048071;28;20119;-58
2021/12/15 14:51:52;;;;;;;3.95;1.70;;;;;;;;;;5051171;28;20017;-58
2021/12/15 14:54:22;;;;;;;2.65;1.05;;;;;;;;;;5051207;28;20124;-58
2021/12/15 14:56:47;;;;;;;5.65;1.95;;;;;;;;;;5050994;28;20489;-60
2021/12/15 14:59:14;;;;;;;3.38;1.20;;;;;;;;;;5051484;28;20040;-59
2021/12/15 15:01:40;;;;;;;2.80;1.20;;;;;;;;;;5052328;28;20025;-57
2021/12/15 15:04:06;;;;;;;4.60;1.40;;;;;;;;;;5052019;28;20051;-58
2021/12/15 15:06:32;;;;;;;3.17;1.00;;;;;;;;;;5051216;28;20025;-57
2021/12/15 15:09:18;;;;;;;2.58;1.00;;;;;;;;;;5052178;28;20031;-56
2021/12/15 15:12:05;;;;;;;6.55;1.10;;;;;;;;;;5049630;28;20037;-57
2021/12/15 15:14:51;;;;;;;5.93;1.05;;;;;;;;;;5049637;28;20386;-57
2021/12/15 15:17:25;;;;;;;6.32;1.30;;;;;;;;;;5044893;28;20037;-60
2021/12/15 15:19:52;;;;;;;2.58;1.02;;;;;;;;;;5048154;28;20021;-57
2021/12/15 15:22:19;;;;;;;2.17;1.15;;;;;;;;;;5049501;28;20037;-58
2021/12/15 15:24:47;;;;;;;2.17;1.00;;;;;;;;;;5049165;28;20025;-58
2021/12/15 15:27:14;;;;;;;1.98;1.00;;;;;;;;;;5049300;28;20041;-58
2021/12/15 15:29:41;;;;;;;2.08;1.00;;;;;;;;;;5050024;28;20027;-58
2021/12/15 15:32:26;;;;;;;3.58;1.20;;;;;;;;;;5047295;28;20041;-57
2021/12/15 15:34:53;;;;;;;1.88;0.95;;;;;;;;;;5049619;28;20019;-57
2021/12/15 15:37:28;;;;;;;2.33;1.20;;;;;;;;;;5051430;28;20028;-58
2021/12/15 15:40:19;;;;;;;2.90;0.90;;;;;;;;;;5049426;28;20017;-57
2021/12/15 15:42:46;;;;;;;5.13;1.00;;;;;;;;;;5046775;28;20037;-58
2021/12/15 15:45:29;;;;;;;5.70;1.10;;;;;;;;;;5048907;28;20051;-54
2021/12/15 15:47:54;;;;;;;2.28;0.77;;;;;;;;;;5048482;28;20052;-54
2021/12/15 15:50:20;;;;;;;4.60;1.10;;;;;;;;;;5050288;28;20073;-53
2021/12/15 15:52:50;;;;;;;2.70;1.17;;;;;;;;;;5049819;28;20036;-53
2021/12/15 15:55:16;;;;;;;2.40;0.77;;;;;;;;;;5049893;28;20029;-55
2021/12/15 15:57:50;;;;;;;4.63;1.10;;;;;;;;;;5049279;28;20063;-55